sensor_id;sensor_type;location;lat;lon;timestamp;P1;durP1;ratioP1;P2;durP2;ratioP2
8279;SDS011;8335;42.646;23.380;2022-07-19T00:02:11;3.90;;;3.50;;
8279;SDS011;8335;42.646;23.380;2022-07-19T00:04:37;4.15;;;3.53;;
8279;SDS011;8335;42.646;23.380;2022-07-19T00:07:04;4.63;;;3.15;;
8279;SDS011;8335;42.646;23.380;2022-07-19T00:09:31;3.53;;;3.22;;
8279;SDS011;8335;42.646;23.380;2022-07-19T00:11:59;7.40;;;3.10;;
8279;SDS011;8335;42.646;23.380;2022-07-19T00:14:25;3.72;;;3.20;;
8279;SDS011;8335;42.646;23.380;2022-07-19T00:16:52;6.88;;;3.22;;
8279;SDS011;8335;42.646;23.380;2022-07-19T00:19:19;7.55;;;3.47;;
8279;SDS011;8335;42.646;23.380;2022-07-19T00:21:45;5.57;;;3.40;;
8279;SDS011;8335;42.646;23.380;2022-07-19T00:24:12;4.75;;;3.10;;
8279;SDS011;8335;42.646;23.380;2022-07-19T00:26:39;7.30;;;3.28;;
8279;SDS011;8335;42.646;23.380;2022-07-19T00:29:07;5.88;;;3.30;;
8279;SDS011;8335;42.646;23.380;2022-07-19T00:31:34;3.90;;;2.45;;
8279;SDS011;8335;42.646;23.380;2022-07-19T00:34:01;4.32;;;2.92;;
8279;SDS011;8335;42.646;23.380;2022-07-19T00:36:28;6.00;;;3.00;;
8279;SDS011;8335;42.646;23.380;2022-07-19T00:38:55;4.35;;;3.00;;
8279;SDS011;8335;42.646;23.380;2022-07-19T00:41:22;5.13;;;3.03;;
8279;SDS011;8335;42.646;23.380;2022-07-19T00:43:48;4.45;;;3.00;;
8279;SDS011;8335;42.646;23.380;2022-07-19T00:46:18;3.40;;;2.85;;
8279;SDS011;8335;42.646;23.380;2022-07-19T00:48:46;3.75;;;3.10;;
8279;SDS011;8335;42.646;23.380;2022-07-19T00:51:14;3.75;;;3.13;;
8279;SDS011;8335;42.646;23.380;2022-07-19T00:53:41;7.50;;;3.22;;
8279;SDS011;8335;42.646;23.380;2022-07-19T00:56:10;3.20;;;2.78;;
8279;SDS011;8335;42.646;23.380;2022-07-19T00:58:38;3.72;;;2.75;;
8279;SDS011;8335;42.646;23.380;2022-07-19T01:01:06;3.35;;;3.00;;
8279;SDS011;8335;42.646;23.380;2022-07-19T01:03:36;2.88;;;2.67;;
8279;SDS011;8335;42.646;23.380;2022-07-19T01:06:04;3.97;;;2.95;;
8279;SDS011;8335;42.646;23.380;2022-07-19T01:08:32;3.85;;;3.05;;
8279;SDS011;8335;42.646;23.380;2022-07-19T01:11:00;4.93;;;2.80;;
8279;SDS011;8335;42.646;23.380;2022-07-19T01:13:29;4.13;;;2.97;;
8279;SDS011;8335;42.646;23.380;2022-07-19T01:15:57;6.15;;;3.50;;
8279;SDS011;8335;42.646;23.380;2022-07-19T01:18:24;4.82;;;3.20;;
8279;SDS011;8335;42.646;23.380;2022-07-19T01:20:52;5.28;;;3.05;;
8279;SDS011;8335;42.646;23.380;2022-07-19T01:23:20;5.43;;;2.95;;
8279;SDS011;8335;42.646;23.380;2022-07-19T01:25:47;4.32;;;2.95;;
8279;SDS011;8335;42.646;23.380;2022-07-19T01:28:14;3.83;;;2.97;;
8279;SDS011;8335;42.646;23.380;2022-07-19T01:30:41;7.68;;;2.78;;
8279;SDS011;8335;42.646;23.380;2022-07-19T01:33:08;3.92;;;3.10;;
8279;SDS011;8335;42.646;23.380;2022-07-19T01:35:34;4.03;;;3.03;;
8279;SDS011;8335;42.646;23.380;2022-07-19T01:38:01;3.13;;;2.65;;
8279;SDS011;8335;42.646;23.380;2022-07-19T01:40:29;7.55;;;3.25;;
8279;SDS011;8335;42.646;23.380;2022-07-19T01:42:58;5.75;;;3.13;;
8279;SDS011;8335;42.646;23.380;2022-07-19T01:45:25;5.32;;;3.38;;
8279;SDS011;8335;42.646;23.380;2022-07-19T01:47:52;4.95;;;3.88;;
8279;SDS011;8335;42.646;23.380;2022-07-19T01:50:18;5.22;;;3.67;;
8279;SDS011;8335;42.646;23.380;2022-07-19T01:52:45;4.97;;;3.90;;
8279;SDS011;8335;42.646;23.380;2022-07-19T01:55:12;6.38;;;4.75;;
8279;SDS011;8335;42.646;23.380;2022-07-19T01:57:40;6.63;;;4.57;;
8279;SDS011;8335;42.646;23.380;2022-07-19T02:00:07;5.22;;;3.88;;
8279;SDS011;8335;42.646;23.380;2022-07-19T02:02:35;10.23;;;4.68;;
8279;SDS011;8335;42.646;23.380;2022-07-19T02:05:01;7.13;;;5.00;;
8279;SDS011;8335;42.646;23.380;2022-07-19T02:07:29;6.82;;;4.63;;
8279;SDS011;8335;42.646;23.380;2022-07-19T02:09:56;4.45;;;3.75;;
8279;SDS011;8335;42.646;23.380;2022-07-19T02:12:22;8.65;;;4.20;;
8279;SDS011;8335;42.646;23.380;2022-07-19T02:14:50;4.75;;;3.25;;
8279;SDS011;8335;42.646;23.380;2022-07-19T02:17:17;6.53;;;3.63;;
8279;SDS011;8335;42.646;23.380;2022-07-19T02:19:44;7.95;;;4.07;;
8279;SDS011;8335;42.646;23.380;2022-07-19T02:22:11;4.20;;;3.35;;
8279;SDS011;8335;42.646;23.380;2022-07-19T02:24:37;4.05;;;2.88;;
8279;SDS011;8335;42.646;23.380;2022-07-19T02:27:07;5.15;;;3.03;;
8279;SDS011;8335;42.646;23.380;2022-07-19T02:29:34;6.15;;;3.05;;
8279;SDS011;8335;42.646;23.380;2022-07-19T02:32:03;3.63;;;3.07;;
8279;SDS011;8335;42.646;23.380;2022-07-19T02:34:30;3.75;;;3.10;;
8279;SDS011;8335;42.646;23.380;2022-07-19T02:36:57;7.03;;;3.55;;
8279;SDS011;8335;42.646;23.380;2022-07-19T02:39:24;4.22;;;3.33;;
8279;SDS011;8335;42.646;23.380;2022-07-19T02:41:50;4.60;;;2.73;;
8279;SDS011;8335;42.646;23.380;2022-07-19T02:44:17;5.05;;;3.00;;
8279;SDS011;8335;42.646;23.380;2022-07-19T02:46:44;7.37;;;3.10;;
8279;SDS011;8335;42.646;23.380;2022-07-19T02:49:12;4.07;;;2.77;;
8279;SDS011;8335;42.646;23.380;2022-07-19T02:51:38;4.15;;;2.83;;
8279;SDS011;8335;42.646;23.380;2022-07-19T02:54:05;4.73;;;2.90;;
8279;SDS011;8335;42.646;23.380;2022-07-19T02:56:32;5.43;;;3.10;;
8279;SDS011;8335;42.646;23.380;2022-07-19T02:59:01;4.27;;;3.13;;
8279;SDS011;8335;42.646;23.380;2022-07-19T03:01:28;3.08;;;2.78;;
8279;SDS011;8335;42.646;23.380;2022-07-19T03:03:55;6.13;;;2.90;;
8279;SDS011;8335;42.646;23.380;2022-07-19T03:06:23;3.63;;;2.60;;
8279;SDS011;8335;42.646;23.380;2022-07-19T03:08:50;3.45;;;2.63;;
8279;SDS011;8335;42.646;23.380;2022-07-19T03:11:17;5.00;;;3.10;;
8279;SDS011;8335;42.646;23.380;2022-07-19T03:13:44;5.33;;;2.70;;
8279;SDS011;8335;42.646;23.380;2022-07-19T03:16:11;7.00;;;2.80;;
8279;SDS011;8335;42.646;23.380;2022-07-19T03:18:37;5.63;;;3.30;;
8279;SDS011;8335;42.646;23.380;2022-07-19T03:21:04;7.55;;;3.22;;
8279;SDS011;8335;42.646;23.380;2022-07-19T03:23:33;3.57;;;3.20;;
8279;SDS011;8335;42.646;23.380;2022-07-19T03:26:01;3.50;;;2.70;;
8279;SDS011;8335;42.646;23.380;2022-07-19T03:28:28;5.27;;;3.30;;
8279;SDS011;8335;42.646;23.380;2022-07-19T03:30:55;3.97;;;2.78;;
8279;SDS011;8335;42.646;23.380;2022-07-19T03:33:22;3.60;;;3.05;;
8279;SDS011;8335;42.646;23.380;2022-07-19T03:35:48;3.20;;;2.60;;
8279;SDS011;8335;42.646;23.380;2022-07-19T03:38:15;3.17;;;2.88;;
8279;SDS011;8335;42.646;23.380;2022-07-19T03:40:44;4.88;;;2.78;;
8279;SDS011;8335;42.646;23.380;2022-07-19T03:43:12;2.92;;;2.65;;
8279;SDS011;8335;42.646;23.380;2022-07-19T03:45:39;4.43;;;2.78;;
8279;SDS011;8335;42.646;23.380;2022-07-19T03:48:06;4.22;;;2.63;;
8279;SDS011;8335;42.646;23.380;2022-07-19T03:50:32;13.35;;;2.88;;
8279;SDS011;8335;42.646;23.380;2022-07-19T03:52:59;4.63;;;2.80;;
8279;SDS011;8335;42.646;23.380;2022-07-19T03:55:26;4.60;;;2.50;;
8279;SDS011;8335;42.646;23.380;2022-07-19T03:57:54;4.85;;;2.63;;
8279;SDS011;8335;42.646;23.380;2022-07-19T04:00:20;2.88;;;2.60;;
8279;SDS011;8335;42.646;23.380;2022-07-19T04:02:47;6.50;;;3.20;;
8279;SDS011;8335;42.646;23.380;2022-07-19T04:05:14;5.18;;;2.78;;
8279;SDS011;8335;42.646;23.380;2022-07-19T04:07:41;3.25;;;2.40;;
8279;SDS011;8335;42.646;23.380;2022-07-19T04:10:08;6.80;;;2.53;;
8279;SDS011;8335;42.646;23.380;2022-07-19T04:12:35;2.70;;;2.42;;
8279;SDS011;8335;42.646;23.380;2022-07-19T04:15:03;4.13;;;2.30;;
8279;SDS011;8335;42.646;23.380;2022-07-19T04:17:30;3.95;;;2.80;;
8279;SDS011;8335;42.646;23.380;2022-07-19T04:19:57;3.90;;;2.28;;
8279;SDS011;8335;42.646;23.380;2022-07-19T04:22:24;4.35;;;2.53;;
8279;SDS011;8335;42.646;23.380;2022-07-19T04:24:50;4.50;;;2.47;;
8279;SDS011;8335;42.646;23.380;2022-07-19T04:27:17;3.75;;;2.30;;
8279;SDS011;8335;42.646;23.380;2022-07-19T04:29:44;4.15;;;2.45;;
8279;SDS011;8335;42.646;23.380;2022-07-19T04:32:12;6.82;;;2.40;;
8279;SDS011;8335;42.646;23.380;2022-07-19T04:34:39;3.40;;;2.03;;
8279;SDS011;8335;42.646;23.380;2022-07-19T04:37:06;4.70;;;2.47;;
8279;SDS011;8335;42.646;23.380;2022-07-19T04:39:32;7.75;;;2.78;;
8279;SDS011;8335;42.646;23.380;2022-07-19T04:41:59;7.25;;;2.60;;
8279;SDS011;8335;42.646;23.380;2022-07-19T04:44:26;5.65;;;2.80;;
8279;SDS011;8335;42.646;23.380;2022-07-19T04:46:52;7.05;;;2.60;;
8279;SDS011;8335;42.646;23.380;2022-07-19T04:49:21;9.13;;;2.60;;
8279;SDS011;8335;42.646;23.380;2022-07-19T04:51:48;6.60;;;2.45;;
8279;SDS011;8335;42.646;23.380;2022-07-19T04:54:14;6.60;;;2.38;;
8279;SDS011;8335;42.646;23.380;2022-07-19T04:56:41;7.47;;;2.58;;
8279;SDS011;8335;42.646;23.380;2022-07-19T04:59:08;3.92;;;2.30;;
8279;SDS011;8335;42.646;23.380;2022-07-19T05:01:34;3.53;;;2.15;;
8279;SDS011;8335;42.646;23.380;2022-07-19T05:04:01;7.60;;;2.30;;
8279;SDS011;8335;42.646;23.380;2022-07-19T05:06:29;5.72;;;2.40;;
8279;SDS011;8335;42.646;23.380;2022-07-19T05:08:56;6.95;;;2.30;;
8279;SDS011;8335;42.646;23.380;2022-07-19T05:11:23;3.80;;;2.30;;
8279;SDS011;8335;42.646;23.380;2022-07-19T05:13:50;6.93;;;2.50;;
8279;SDS011;8335;42.646;23.380;2022-07-19T05:16:17;8.68;;;2.30;;
8279;SDS011;8335;42.646;23.380;2022-07-19T05:18:43;6.00;;;2.22;;
8279;SDS011;8335;42.646;23.380;2022-07-19T05:21:10;2.42;;;1.85;;
8279;SDS011;8335;42.646;23.380;2022-07-19T05:23:39;4.53;;;2.03;;
8279;SDS011;8335;42.646;23.380;2022-07-19T05:26:06;3.92;;;1.88;;
8279;SDS011;8335;42.646;23.380;2022-07-19T05:28:32;8.00;;;2.15;;
8279;SDS011;8335;42.646;23.380;2022-07-19T05:30:59;4.95;;;2.10;;
8279;SDS011;8335;42.646;23.380;2022-07-19T05:33:26;5.43;;;2.28;;
8279;SDS011;8335;42.646;23.380;2022-07-19T05:35:53;10.30;;;2.45;;
8279;SDS011;8335;42.646;23.380;2022-07-19T05:38:21;4.13;;;1.95;;
8279;SDS011;8335;42.646;23.380;2022-07-19T05:40:49;7.80;;;2.60;;
8279;SDS011;8335;42.646;23.380;2022-07-19T05:43:16;7.25;;;2.17;;
8279;SDS011;8335;42.646;23.380;2022-07-19T05:45:43;2.05;;;1.85;;
8279;SDS011;8335;42.646;23.380;2022-07-19T05:48:10;3.67;;;2.13;;
8279;SDS011;8335;42.646;23.380;2022-07-19T05:50:37;5.82;;;2.03;;
8279;SDS011;8335;42.646;23.380;2022-07-19T05:53:04;4.80;;;2.30;;
8279;SDS011;8335;42.646;23.380;2022-07-19T05:55:30;4.07;;;1.75;;
8279;SDS011;8335;42.646;23.380;2022-07-19T05:57:58;4.57;;;1.92;;
8279;SDS011;8335;42.646;23.380;2022-07-19T06:00:25;4.75;;;2.10;;
8279;SDS011;8335;42.646;23.380;2022-07-19T06:02:52;3.33;;;2.20;;
8279;SDS011;8335;42.646;23.380;2022-07-19T06:05:18;4.90;;;1.95;;
8279;SDS011;8335;42.646;23.380;2022-07-19T06:07:45;6.47;;;2.13;;
8279;SDS011;8335;42.646;23.380;2022-07-19T06:10:12;4.50;;;2.05;;
8279;SDS011;8335;42.646;23.380;2022-07-19T06:12:38;3.65;;;2.03;;
8279;SDS011;8335;42.646;23.380;2022-07-19T06:15:07;2.65;;;2.10;;
8279;SDS011;8335;42.646;23.380;2022-07-19T06:17:34;4.50;;;2.05;;
8279;SDS011;8335;42.646;23.380;2022-07-19T06:20:01;4.30;;;2.33;;
8279;SDS011;8335;42.646;23.380;2022-07-19T06:22:29;5.10;;;2.30;;
8279;SDS011;8335;42.646;23.380;2022-07-19T06:24:56;9.30;;;2.47;;
8279;SDS011;8335;42.646;23.380;2022-07-19T06:27:23;6.65;;;2.10;;
8279;SDS011;8335;42.646;23.380;2022-07-19T06:29:50;4.80;;;2.10;;
8279;SDS011;8335;42.646;23.380;2022-07-19T06:32:18;5.75;;;4.43;;
8279;SDS011;8335;42.646;23.380;2022-07-19T06:34:44;5.35;;;2.00;;
8279;SDS011;8335;42.646;23.380;2022-07-19T06:37:11;5.97;;;2.35;;
8279;SDS011;8335;42.646;23.380;2022-07-19T06:39:38;6.20;;;2.22;;
8279;SDS011;8335;42.646;23.380;2022-07-19T06:42:04;4.60;;;2.00;;
8279;SDS011;8335;42.646;23.380;2022-07-19T06:44:31;6.03;;;2.08;;
8279;SDS011;8335;42.646;23.380;2022-07-19T06:46:59;4.78;;;2.00;;
8279;SDS011;8335;42.646;23.380;2022-07-19T06:49:27;4.70;;;1.77;;
8279;SDS011;8335;42.646;23.380;2022-07-19T06:51:53;3.35;;;1.90;;
8279;SDS011;8335;42.646;23.380;2022-07-19T06:54:20;7.38;;;2.42;;
8279;SDS011;8335;42.646;23.380;2022-07-19T06:56:47;7.22;;;2.40;;
8279;SDS011;8335;42.646;23.380;2022-07-19T06:59:14;6.47;;;1.92;;
8279;SDS011;8335;42.646;23.380;2022-07-19T07:01:40;6.07;;;1.90;;
8279;SDS011;8335;42.646;23.380;2022-07-19T07:04:07;6.15;;;2.33;;
8279;SDS011;8335;42.646;23.380;2022-07-19T07:06:35;7.20;;;2.33;;
8279;SDS011;8335;42.646;23.380;2022-07-19T07:09:02;9.07;;;2.45;;
8279;SDS011;8335;42.646;23.380;2022-07-19T07:11:29;5.95;;;2.20;;
8279;SDS011;8335;42.646;23.380;2022-07-19T07:13:56;4.07;;;2.13;;
8279;SDS011;8335;42.646;23.380;2022-07-19T07:16:23;4.70;;;2.10;;
8279;SDS011;8335;42.646;23.380;2022-07-19T07:18:49;6.78;;;2.00;;
8279;SDS011;8335;42.646;23.380;2022-07-19T07:21:16;6.30;;;2.10;;
8279;SDS011;8335;42.646;23.380;2022-07-19T07:23:44;6.47;;;1.90;;
8279;SDS011;8335;42.646;23.380;2022-07-19T07:26:11;3.42;;;2.00;;
8279;SDS011;8335;42.646;23.380;2022-07-19T07:28:38;5.65;;;2.40;;
8279;SDS011;8335;42.646;23.380;2022-07-19T07:31:04;4.97;;;2.10;;
8279;SDS011;8335;42.646;23.380;2022-07-19T07:33:31;7.35;;;2.10;;
8279;SDS011;8335;42.646;23.380;2022-07-19T07:35:58;6.32;;;2.40;;
8279;SDS011;8335;42.646;23.380;2022-07-19T07:38:25;5.05;;;2.15;;
8279;SDS011;8335;42.646;23.380;2022-07-19T07:40:53;3.67;;;1.80;;
8279;SDS011;8335;42.646;23.380;2022-07-19T07:43:19;6.65;;;2.00;;
8279;SDS011;8335;42.646;23.380;2022-07-19T07:45:46;6.60;;;2.35;;
8279;SDS011;8335;42.646;23.380;2022-07-19T07:48:13;2.20;;;1.95;;
8279;SDS011;8335;42.646;23.380;2022-07-19T07:50:40;3.78;;;1.98;;
8279;SDS011;8335;42.646;23.380;2022-07-19T07:53:07;3.42;;;1.90;;
8279;SDS011;8335;42.646;23.380;2022-07-19T07:55:34;4.88;;;2.20;;
8279;SDS011;8335;42.646;23.380;2022-07-19T07:58:06;4.38;;;2.45;;
8279;SDS011;8335;42.646;23.380;2022-07-19T08:00:33;3.03;;;2.00;;
8279;SDS011;8335;42.646;23.380;2022-07-19T08:02:59;6.18;;;2.13;;
8279;SDS011;8335;42.646;23.380;2022-07-19T08:05:26;3.20;;;1.90;;
8279;SDS011;8335;42.646;23.380;2022-07-19T08:07:53;3.95;;;2.03;;
8279;SDS011;8335;42.646;23.380;2022-07-19T08:10:20;4.13;;;1.90;;
8279;SDS011;8335;42.646;23.380;2022-07-19T08:12:48;5.03;;;2.25;;
8279;SDS011;8335;42.646;23.380;2022-07-19T08:15:16;5.38;;;1.83;;
8279;SDS011;8335;42.646;23.380;2022-07-19T08:17:43;2.50;;;1.75;;
8279;SDS011;8335;42.646;23.380;2022-07-19T08:20:10;3.13;;;1.60;;
8279;SDS011;8335;42.646;23.380;2022-07-19T08:22:37;4.07;;;2.33;;
8279;SDS011;8335;42.646;23.380;2022-07-19T08:25:04;4.30;;;2.10;;
8279;SDS011;8335;42.646;23.380;2022-07-19T08:27:31;6.78;;;1.90;;
8279;SDS011;8335;42.646;23.380;2022-07-19T08:29:59;3.53;;;2.15;;
8279;SDS011;8335;42.646;23.380;2022-07-19T08:32:27;5.72;;;2.20;;
8279;SDS011;8335;42.646;23.380;2022-07-19T08:34:53;3.53;;;2.22;;
8279;SDS011;8335;42.646;23.380;2022-07-19T08:37:21;3.35;;;1.80;;
8279;SDS011;8335;42.646;23.380;2022-07-19T08:39:47;5.85;;;3.90;;
8279;SDS011;8335;42.646;23.380;2022-07-19T08:42:16;9.95;;;4.45;;
8279;SDS011;8335;42.646;23.380;2022-07-19T08:44:45;4.38;;;2.30;;
8279;SDS011;8335;42.646;23.380;2022-07-19T08:47:17;8.35;;;2.28;;
8279;SDS011;8335;42.646;23.380;2022-07-19T08:49:46;3.80;;;2.05;;
8279;SDS011;8335;42.646;23.380;2022-07-19T08:52:13;6.32;;;1.90;;
8279;SDS011;8335;42.646;23.380;2022-07-19T08:54:40;2.47;;;1.80;;
8279;SDS011;8335;42.646;23.380;2022-07-19T08:57:07;3.78;;;2.30;;
8279;SDS011;8335;42.646;23.380;2022-07-19T08:59:51;3.33;;;1.80;;
8279;SDS011;8335;42.646;23.380;2022-07-19T09:02:18;1.88;;;1.70;;
8279;SDS011;8335;42.646;23.380;2022-07-19T09:04:50;2.55;;;1.95;;
8279;SDS011;8335;42.646;23.380;2022-07-19T09:07:25;3.20;;;1.92;;
8279;SDS011;8335;42.646;23.380;2022-07-19T09:09:52;3.05;;;2.05;;
8279;SDS011;8335;42.646;23.380;2022-07-19T09:12:18;3.90;;;2.15;;
8279;SDS011;8335;42.646;23.380;2022-07-19T09:14:45;4.15;;;1.90;;
8279;SDS011;8335;42.646;23.380;2022-07-19T09:17:19;2.67;;;2.05;;
8279;SDS011;8335;42.646;23.380;2022-07-19T09:19:47;2.95;;;1.98;;
8279;SDS011;8335;42.646;23.380;2022-07-19T09:22:16;3.25;;;1.90;;
8279;SDS011;8335;42.646;23.380;2022-07-19T09:24:44;3.60;;;1.92;;
8279;SDS011;8335;42.646;23.380;2022-07-19T09:27:14;4.32;;;2.10;;
8279;SDS011;8335;42.646;23.380;2022-07-19T09:29:44;2.95;;;2.03;;
8279;SDS011;8335;42.646;23.380;2022-07-19T09:32:12;2.78;;;2.05;;
8279;SDS011;8335;42.646;23.380;2022-07-19T09:34:41;2.40;;;1.90;;
8279;SDS011;8335;42.646;23.380;2022-07-19T09:37:10;5.80;;;2.05;;
8279;SDS011;8335;42.646;23.380;2022-07-19T09:39:43;3.60;;;1.75;;
8279;SDS011;8335;42.646;23.380;2022-07-19T09:42:12;5.78;;;1.83;;
8279;SDS011;8335;42.646;23.380;2022-07-19T09:44:39;1.88;;;1.58;;
8279;SDS011;8335;42.646;23.380;2022-07-19T09:47:06;3.20;;;1.88;;
8279;SDS011;8335;42.646;23.380;2022-07-19T09:49:33;3.45;;;1.80;;
8279;SDS011;8335;42.646;23.380;2022-07-19T09:52:00;2.10;;;1.70;;
8279;SDS011;8335;42.646;23.380;2022-07-19T09:54:29;2.58;;;1.85;;
8279;SDS011;8335;42.646;23.380;2022-07-19T09:57:00;3.22;;;1.80;;
8279;SDS011;8335;42.646;23.380;2022-07-19T09:59:26;5.70;;;1.73;;
8279;SDS011;8335;42.646;23.380;2022-07-19T10:01:55;6.40;;;2.08;;
8279;SDS011;8335;42.646;23.380;2022-07-19T10:04:23;7.05;;;1.90;;
8279;SDS011;8335;42.646;23.380;2022-07-19T10:06:51;2.83;;;1.80;;
8279;SDS011;8335;42.646;23.380;2022-07-19T10:09:19;2.17;;;1.85;;
8279;SDS011;8335;42.646;23.380;2022-07-19T10:11:48;3.38;;;2.13;;
8279;SDS011;8335;42.646;23.380;2022-07-19T10:14:17;2.38;;;2.17;;
8279;SDS011;8335;42.646;23.380;2022-07-19T10:19:35;4.38;;;1.90;;
8279;SDS011;8335;42.646;23.380;2022-07-19T10:22:09;3.95;;;2.20;;
8279;SDS011;8335;42.646;23.380;2022-07-19T10:24:50;3.33;;;2.20;;
8279;SDS011;8335;42.646;23.380;2022-07-19T10:27:34;3.85;;;2.47;;
8279;SDS011;8335;42.646;23.380;2022-07-19T10:30:16;3.95;;;2.20;;
8279;SDS011;8335;42.646;23.380;2022-07-19T10:32:48;5.30;;;2.30;;
8279;SDS011;8335;42.646;23.380;2022-07-19T10:35:17;4.00;;;2.28;;
8279;SDS011;8335;42.646;23.380;2022-07-19T10:37:46;7.05;;;2.47;;
8279;SDS011;8335;42.646;23.380;2022-07-19T10:43:05;6.32;;;2.15;;
8279;SDS011;8335;42.646;23.380;2022-07-19T10:45:33;3.25;;;2.30;;
8279;SDS011;8335;42.646;23.380;2022-07-19T10:50:56;4.32;;;2.30;;
8279;SDS011;8335;42.646;23.380;2022-07-19T10:59:40;4.18;;;2.67;;
8279;SDS011;8335;42.646;23.380;2022-07-19T11:02:08;4.30;;;3.45;;
8279;SDS011;8335;42.646;23.380;2022-07-19T11:04:48;13.23;;;6.13;;
8279;SDS011;8335;42.646;23.380;2022-07-19T11:07:17;3.38;;;2.10;;
8279;SDS011;8335;42.646;23.380;2022-07-19T11:09:48;3.05;;;2.28;;
8279;SDS011;8335;42.646;23.380;2022-07-19T11:12:23;4.80;;;2.15;;
8279;SDS011;8335;42.646;23.380;2022-07-19T11:15:11;2.35;;;2.15;;
8279;SDS011;8335;42.646;23.380;2022-07-19T11:17:38;2.72;;;2.40;;
8279;SDS011;8335;42.646;23.380;2022-07-19T11:20:07;3.03;;;2.40;;
8279;SDS011;8335;42.646;23.380;2022-07-19T11:22:39;4.78;;;2.28;;
8279;SDS011;8335;42.646;23.380;2022-07-19T11:25:08;5.13;;;2.53;;
8279;SDS011;8335;42.646;23.380;2022-07-19T11:27:39;2.67;;;2.40;;
8279;SDS011;8335;42.646;23.380;2022-07-19T11:30:08;2.30;;;2.10;;
8279;SDS011;8335;42.646;23.380;2022-07-19T11:32:37;6.10;;;2.58;;
8279;SDS011;8335;42.646;23.380;2022-07-19T11:35:04;2.58;;;2.30;;
8279;SDS011;8335;42.646;23.380;2022-07-19T11:37:33;4.53;;;2.55;;
8279;SDS011;8335;42.646;23.380;2022-07-19T11:40:02;4.57;;;2.40;;
8279;SDS011;8335;42.646;23.380;2022-07-19T11:42:30;4.70;;;2.40;;
8279;SDS011;8335;42.646;23.380;2022-07-19T11:44:59;3.38;;;2.53;;
8279;SDS011;8335;42.646;23.380;2022-07-19T11:47:33;4.55;;;2.30;;
8279;SDS011;8335;42.646;23.380;2022-07-19T11:50:04;2.92;;;2.30;;
8279;SDS011;8335;42.646;23.380;2022-07-19T11:52:41;3.70;;;2.10;;
8279;SDS011;8335;42.646;23.380;2022-07-19T11:55:09;2.22;;;2.03;;
8279;SDS011;8335;42.646;23.380;2022-07-19T11:57:36;2.50;;;2.03;;
8279;SDS011;8335;42.646;23.380;2022-07-19T12:00:03;5.10;;;2.33;;
8279;SDS011;8335;42.646;23.380;2022-07-19T12:05:17;6.45;;;2.28;;
8279;SDS011;8335;42.646;23.380;2022-07-19T12:07:45;4.82;;;2.35;;
8279;SDS011;8335;42.646;23.380;2022-07-19T12:13:01;4.63;;;2.28;;
8279;SDS011;8335;42.646;23.380;2022-07-19T12:15:42;2.42;;;2.17;;
8279;SDS011;8335;42.646;23.380;2022-07-19T12:18:09;2.50;;;2.30;;
8279;SDS011;8335;42.646;23.380;2022-07-19T12:20:37;3.75;;;2.20;;
8279;SDS011;8335;42.646;23.380;2022-07-19T12:23:10;3.88;;;2.40;;
8279;SDS011;8335;42.646;23.380;2022-07-19T12:25:38;4.85;;;2.33;;
8279;SDS011;8335;42.646;23.380;2022-07-19T12:28:04;4.25;;;2.20;;
8279;SDS011;8335;42.646;23.380;2022-07-19T12:30:31;4.40;;;2.33;;
8279;SDS011;8335;42.646;23.380;2022-07-19T12:33:05;6.07;;;2.55;;
8279;SDS011;8335;42.646;23.380;2022-07-19T12:35:41;5.40;;;2.20;;
8279;SDS011;8335;42.646;23.380;2022-07-19T12:38:09;6.20;;;2.60;;
8279;SDS011;8335;42.646;23.380;2022-07-19T12:40:37;3.60;;;2.20;;
8279;SDS011;8335;42.646;23.380;2022-07-19T12:43:04;2.63;;;2.13;;
8279;SDS011;8335;42.646;23.380;2022-07-19T12:45:33;4.10;;;2.30;;
8279;SDS011;8335;42.646;23.380;2022-07-19T12:48:02;4.38;;;2.53;;
8279;SDS011;8335;42.646;23.380;2022-07-19T12:50:30;5.15;;;2.40;;
8279;SDS011;8335;42.646;23.380;2022-07-19T12:53:00;4.70;;;2.20;;
8279;SDS011;8335;42.646;23.380;2022-07-19T12:55:31;4.00;;;2.47;;
8279;SDS011;8335;42.646;23.380;2022-07-19T12:57:59;5.32;;;2.30;;
8279;SDS011;8335;42.646;23.380;2022-07-19T13:00:27;2.63;;;2.42;;
8279;SDS011;8335;42.646;23.380;2022-07-19T13:02:55;3.50;;;2.40;;
8279;SDS011;8335;42.646;23.380;2022-07-19T13:05:23;4.25;;;2.38;;
8279;SDS011;8335;42.646;23.380;2022-07-19T13:07:51;4.93;;;2.05;;
8279;SDS011;8335;42.646;23.380;2022-07-19T13:10:20;3.40;;;2.30;;
8279;SDS011;8335;42.646;23.380;2022-07-19T13:12:47;5.43;;;2.50;;
8279;SDS011;8335;42.646;23.380;2022-07-19T13:15:14;2.30;;;2.10;;
8279;SDS011;8335;42.646;23.380;2022-07-19T13:17:41;3.40;;;3.05;;
8279;SDS011;8335;42.646;23.380;2022-07-19T13:20:08;8.82;;;2.63;;
8279;SDS011;8335;42.646;23.380;2022-07-19T13:22:36;3.95;;;2.30;;
8279;SDS011;8335;42.646;23.380;2022-07-19T13:25:04;2.33;;;2.03;;
8279;SDS011;8335;42.646;23.380;2022-07-19T13:27:33;3.40;;;2.25;;
8279;SDS011;8335;42.646;23.380;2022-07-19T13:30:00;3.10;;;2.10;;
8279;SDS011;8335;42.646;23.380;2022-07-19T13:32:27;4.25;;;1.88;;
8279;SDS011;8335;42.646;23.380;2022-07-19T13:34:54;3.83;;;2.00;;
8279;SDS011;8335;42.646;23.380;2022-07-19T13:37:20;5.50;;;2.15;;
8279;SDS011;8335;42.646;23.380;2022-07-19T13:39:47;2.70;;;2.10;;
8279;SDS011;8335;42.646;23.380;2022-07-19T13:42:14;4.35;;;2.20;;
8279;SDS011;8335;42.646;23.380;2022-07-19T13:44:42;3.13;;;2.10;;
8279;SDS011;8335;42.646;23.380;2022-07-19T13:47:08;3.45;;;2.30;;
8279;SDS011;8335;42.646;23.380;2022-07-19T13:49:35;3.42;;;2.40;;
8279;SDS011;8335;42.646;23.380;2022-07-19T13:52:02;5.15;;;2.00;;
8279;SDS011;8335;42.646;23.380;2022-07-19T13:54:29;3.47;;;2.42;;
8279;SDS011;8335;42.646;23.380;2022-07-19T13:56:55;2.30;;;2.10;;
8279;SDS011;8335;42.646;23.380;2022-07-19T13:59:23;2.95;;;2.17;;
8279;SDS011;8335;42.646;23.380;2022-07-19T14:01:53;2.33;;;2.10;;
8279;SDS011;8335;42.646;23.380;2022-07-19T14:04:19;5.05;;;2.40;;
8279;SDS011;8335;42.646;23.380;2022-07-19T14:06:46;2.97;;;2.00;;
8279;SDS011;8335;42.646;23.380;2022-07-19T14:09:13;4.85;;;2.35;;
8279;SDS011;8335;42.646;23.380;2022-07-19T14:11:39;2.30;;;2.10;;
8279;SDS011;8335;42.646;23.380;2022-07-19T14:14:06;3.40;;;1.85;;
8279;SDS011;8335;42.646;23.380;2022-07-19T14:16:33;3.67;;;2.15;;
8279;SDS011;8335;42.646;23.380;2022-07-19T14:19:01;2.60;;;2.00;;
8279;SDS011;8335;42.646;23.380;2022-07-19T14:21:28;3.70;;;1.92;;
8279;SDS011;8335;42.646;23.380;2022-07-19T14:23:58;7.97;;;2.08;;
8279;SDS011;8335;42.646;23.380;2022-07-19T14:26:25;2.33;;;2.10;;
8279;SDS011;8335;42.646;23.380;2022-07-19T14:28:52;3.05;;;1.75;;
8279;SDS011;8335;42.646;23.380;2022-07-19T14:31:19;2.60;;;1.70;;
8279;SDS011;8335;42.646;23.380;2022-07-19T14:33:45;2.58;;;2.35;;
8279;SDS011;8335;42.646;23.380;2022-07-19T14:36:13;4.72;;;2.30;;
8279;SDS011;8335;42.646;23.380;2022-07-19T14:38:40;3.95;;;2.00;;
8279;SDS011;8335;42.646;23.380;2022-07-19T14:41:07;6.35;;;2.25;;
8279;SDS011;8335;42.646;23.380;2022-07-19T14:43:34;3.78;;;1.92;;
8279;SDS011;8335;42.646;23.380;2022-07-19T14:46:00;2.20;;;2.00;;
8279;SDS011;8335;42.646;23.380;2022-07-19T14:48:27;2.33;;;1.92;;
8279;SDS011;8335;42.646;23.380;2022-07-19T14:50:54;3.33;;;1.90;;
8279;SDS011;8335;42.646;23.380;2022-07-19T14:53:22;2.03;;;1.85;;
8279;SDS011;8335;42.646;23.380;2022-07-19T14:55:48;2.22;;;2.03;;
8279;SDS011;8335;42.646;23.380;2022-07-19T14:58:15;5.45;;;2.33;;
8279;SDS011;8335;42.646;23.380;2022-07-19T15:00:42;6.50;;;1.90;;
8279;SDS011;8335;42.646;23.380;2022-07-19T15:03:08;4.03;;;1.80;;
8279;SDS011;8335;42.646;23.380;2022-07-19T15:05:36;3.15;;;1.70;;
8279;SDS011;8335;42.646;23.380;2022-07-19T15:08:02;1.90;;;1.80;;
8279;SDS011;8335;42.646;23.380;2022-07-19T15:10:31;5.07;;;1.92;;
8279;SDS011;8335;42.646;23.380;2022-07-19T15:12:57;4.53;;;2.00;;
8279;SDS011;8335;42.646;23.380;2022-07-19T15:15:24;4.40;;;1.90;;
8279;SDS011;8335;42.646;23.380;2022-07-19T15:17:51;3.42;;;2.30;;
8279;SDS011;8335;42.646;23.380;2022-07-19T15:20:18;5.60;;;2.38;;
8279;SDS011;8335;42.646;23.380;2022-07-19T15:22:47;3.53;;;1.95;;
8279;SDS011;8335;42.646;23.380;2022-07-19T15:25:14;2.42;;;2.13;;